Time;durP1;ratioP1;P1;durP2;ratioP2;P2;SDS_P1;SDS_P2;PMS_P1;PMS_P2;Temp;Humidity;BMP_temperature;BMP_pressure;BME280_temperature;BME280_humidity;BME280_pressure;Samples;Min_cycle;Max_cycle;Signal;HPM_P1;HPM_P2
2023/05/09 00:01:06;;;;;;;5.93;5.43;;;10.00;1.00;;;;;;5004433;28;20477;-76
2023/05/09 00:03:33;;;;;;;5.70;5.10;;;10.00;1.00;;;;;;5000377;28;20548;-77
2023/05/09 00:06:02;;;;;;;6.20;5.60;;;10.00;1.00;;;;;;5001831;28;20482;-77
2023/05/09 00:08:28;;;;;;;5.63;5.20;;;10.00;1.00;;;;;;4997235;28;20463;-77
2023/05/09 00:10:56;;;;;;;5.80;5.30;;;10.00;1.00;;;;;;5003429;28;20553;-77
2023/05/09 00:13:23;;;;;;;5.13;4.73;;;10.00;1.00;;;;;;5005518;28;20459;-78
2023/05/09 00:15:52;;;;;;;6.60;5.70;;;10.00;1.00;;;;;;4987197;28;20474;-76
2023/05/09 00:18:20;;;;;;;5.27;4.87;;;10.00;1.00;;;;;;4998575;28;20553;-76
2023/05/09 00:20:47;;;;;;;6.10;5.60;;;10.00;1.00;;;;;;4996937;28;21228;-76
2023/05/09 00:23:16;;;;;;;6.20;5.47;;;10.00;1.00;;;;;;5006324;28;20450;-77
2023/05/09 00:25:43;;;;;;;5.37;4.97;;;9.90;1.00;;;;;;5002583;28;20470;-77
2023/05/09 00:28:10;;;;;;;5.83;5.33;;;9.90;1.00;;;;;;5000750;28;20455;-77
2023/05/09 00:30:37;;;;;;;7.10;6.40;;;9.90;1.00;;;;;;5003306;28;20470;-75
2023/05/09 00:33:06;;;;;;;8.33;5.17;;;9.90;1.00;;;;;;5000835;28;20551;-77
2023/05/09 00:35:33;;;;;;;5.90;5.30;;;9.90;1.00;;;;;;4999821;28;20530;-77
2023/05/09 00:38:00;;;;;;;7.00;5.53;;;9.80;1.00;;;;;;5004794;28;20482;-77
2023/05/09 00:40:31;;;;;;;7.90;5.60;;;9.90;1.00;;;;;;4998250;28;20540;-77
2023/05/09 00:42:59;;;;;;;5.80;5.30;;;9.90;1.00;;;;;;5002494;28;20509;-77
2023/05/09 00:45:26;;;;;;;5.37;4.87;;;9.90;1.00;;;;;;5004139;28;20507;-77
2023/05/09 00:47:53;;;;;;;6.00;5.50;;;9.80;1.00;;;;;;5001931;28;20682;-77
2023/05/09 00:50:20;;;;;;;6.17;5.20;;;9.80;1.00;;;;;;5000036;28;20521;-78
2023/05/09 00:52:48;;;;;;;10.23;5.80;;;9.80;1.00;;;;;;4996705;28;20549;-78
2023/05/09 00:55:17;;;;;;;5.77;5.30;;;9.80;1.00;;;;;;5006287;28;20462;-77
2023/05/09 00:57:45;;;;;;;5.50;4.97;;;9.80;1.00;;;;;;5001465;28;21476;-78
2023/05/09 01:00:14;;;;;;;11.43;5.40;;;9.80;1.00;;;;;;5008401;28;20453;-77
2023/05/09 01:02:42;;;;;;;7.00;4.93;;;9.80;1.00;;;;;;5017100;23;22977;-79
2023/05/09 01:05:10;;;;;;;7.47;5.30;;;9.80;1.00;;;;;;5000794;28;21591;-79
2023/05/09 01:07:43;;;;;;;5.70;4.83;;;9.80;1.00;;;;;;5001760;28;20531;-79
2023/05/09 01:10:21;;;;;;;5.63;5.13;;;9.80;1.00;;;;;;5005416;28;20586;-79
2023/05/09 01:12:58;;;;;;;4.50;4.10;;;9.80;1.00;;;;;;4996321;28;20989;-79
2023/05/09 01:15:32;;;;;;;5.47;4.97;;;9.80;1.00;;;;;;5007052;28;20461;-79
2023/05/09 01:18:06;;;;;;;7.10;5.50;;;9.70;1.00;;;;;;5009269;28;20537;-80
2023/05/09 01:20:44;;;;;;;5.53;4.60;;;9.70;1.00;;;;;;5008099;28;21314;-79
2023/05/09 01:23:36;;;;;;;5.37;4.97;;;9.70;1.00;;;;;;4998684;28;20592;-80
2023/05/09 01:26:05;;;;;;;4.67;4.27;;;9.70;1.00;;;;;;5001143;28;21203;-80
2023/05/09 01:29:03;;;;;;;6.13;4.83;;;9.80;1.00;;;;;;5006939;28;21158;-80
2023/05/09 01:31:34;;;;;;;4.80;4.40;;;9.80;1.00;;;;;;5006647;28;20474;-80
2023/05/09 01:34:03;;;;;;;5.00;4.60;;;9.80;1.00;;;;;;5007185;28;20516;-80
2023/05/09 01:36:33;;;;;;;5.40;4.43;;;9.80;1.00;;;;;;5001710;28;20815;-80
2023/05/09 01:39:03;;;;;;;5.07;4.47;;;9.80;1.00;;;;;;4999210;28;20470;-79
2023/05/09 01:41:34;;;;;;;5.30;4.90;;;9.80;1.00;;;;;;5006233;28;20569;-79
2023/05/09 01:44:05;;;;;;;4.70;4.30;;;9.80;1.00;;;;;;5008649;28;20458;-79
2023/05/09 01:46:35;;;;;;;5.20;3.90;;;9.80;1.00;;;;;;4999784;28;20469;-79
2023/05/09 01:49:03;;;;;;;4.73;4.33;;;9.80;1.00;;;;;;5004785;28;21292;-79
2023/05/09 01:51:32;;;;;;;5.60;3.77;;;9.70;1.00;;;;;;5007018;28;20489;-80
2023/05/09 01:54:01;;;;;;;5.67;4.73;;;9.80;1.00;;;;;;5001714;28;20538;-78
2023/05/09 01:56:28;;;;;;;4.40;4.00;;;9.80;1.00;;;;;;4997035;28;20459;-79
2023/05/09 01:58:57;;;;;;;5.13;3.60;;;9.80;1.00;;;;;;5001077;28;20454;-80
2023/05/09 02:01:25;;;;;;;3.53;3.33;;;9.80;1.00;;;;;;5003368;28;20471;-79
2023/05/09 02:03:56;;;;;;;4.83;4.33;;;9.80;1.00;;;;;;5007082;28;20533;-78
2023/05/09 02:06:24;;;;;;;3.63;3.33;;;9.80;1.00;;;;;;5006416;28;20585;-79
2023/05/09 02:08:51;;;;;;;5.53;3.93;;;9.70;1.00;;;;;;5002625;28;20474;-78
2023/05/09 02:11:18;;;;;;;4.87;3.60;;;9.70;1.00;;;;;;4999960;28;20474;-79
2023/05/09 02:13:46;;;;;;;5.30;3.83;;;9.80;1.00;;;;;;5003651;28;20553;-78
2023/05/09 02:16:13;;;;;;;5.90;4.70;;;9.80;1.00;;;;;;5004221;28;20425;-79
2023/05/09 02:18:40;;;;;;;4.80;3.97;;;9.80;1.00;;;;;;5005175;28;20463;-79
2023/05/09 02:21:08;;;;;;;5.40;4.30;;;9.80;1.00;;;;;;5002428;28;20469;-80
2023/05/09 02:23:36;;;;;;;3.97;3.67;;;9.80;1.00;;;;;;5004358;28;20514;-78
2023/05/09 02:26:03;;;;;;;6.53;4.27;;;9.80;1.00;;;;;;4995274;28;20524;-78
2023/05/09 02:28:30;;;;;;;5.53;4.50;;;9.90;1.00;;;;;;4998751;28;20455;-80
2023/05/09 02:30:59;;;;;;;3.90;3.47;;;9.80;1.00;;;;;;4998126;28;20481;-79
2023/05/09 02:33:28;;;;;;;5.03;3.53;;;9.80;1.00;;;;;;4991221;28;20501;-80
2023/05/09 02:35:56;;;;;;;6.00;3.60;;;9.80;1.00;;;;;;5001060;28;20506;-81
2023/05/09 02:38:26;;;;;;;7.97;4.60;;;9.80;1.00;;;;;;5003807;28;20458;-81
2023/05/09 02:40:53;;;;;;;3.80;3.50;;;9.80;1.00;;;;;;5000487;28;20429;-81
2023/05/09 02:43:20;;;;;;;4.00;3.43;;;9.80;1.00;;;;;;4997857;28;20419;-81
2023/05/09 02:45:47;;;;;;;4.20;3.67;;;9.80;1.00;;;;;;4999771;28;20469;-79
2023/05/09 02:48:14;;;;;;;3.97;3.67;;;9.80;1.00;;;;;;5003938;28;20550;-81
2023/05/09 02:50:42;;;;;;;4.23;3.50;;;9.80;1.00;;;;;;5001475;28;20564;-82
2023/05/09 02:53:09;;;;;;;3.50;3.20;;;9.80;1.00;;;;;;5007029;28;20438;-80
2023/05/09 02:55:37;;;;;;;5.80;4.20;;;9.80;1.00;;;;;;5000868;28;21179;-80
2023/05/09 02:58:04;;;;;;;5.33;4.83;;;9.80;1.00;;;;;;5002138;28;20910;-80
2023/05/09 03:00:31;;;;;;;5.27;4.07;;;9.70;1.00;;;;;;5006420;28;20466;-79
2023/05/09 03:02:58;;;;;;;3.60;3.30;;;9.70;1.00;;;;;;4997495;28;20454;-81
2023/05/09 03:05:25;;;;;;;4.13;3.83;;;9.70;1.00;;;;;;5003076;28;20519;-81
2023/05/09 03:07:52;;;;;;;4.50;4.10;;;9.70;1.00;;;;;;5005869;28;20454;-80
2023/05/09 03:10:19;;;;;;;3.90;3.60;;;9.60;1.00;;;;;;5002083;28;21834;-81
2023/05/09 03:12:48;;;;;;;4.47;3.67;;;9.60;1.00;;;;;;5003764;28;20549;-80
2023/05/09 03:15:15;;;;;;;5.20;3.87;;;9.60;1.00;;;;;;5002390;28;20458;-80
2023/05/09 03:17:42;;;;;;;5.43;4.27;;;9.60;1.00;;;;;;4998232;28;20490;-81
2023/05/09 03:20:10;;;;;;;4.10;3.73;;;9.60;1.00;;;;;;5003239;28;20474;-80
2023/05/09 03:22:37;;;;;;;4.30;3.90;;;9.60;1.00;;;;;;5012245;28;20460;-80
2023/05/09 03:25:07;;;;;;;4.50;4.10;;;9.50;1.00;;;;;;5002877;28;20470;-80
2023/05/09 03:27:34;;;;;;;10.03;4.60;;;9.60;1.00;;;;;;5003671;28;20439;-81
2023/05/09 03:30:02;;;;;;;6.20;4.00;;;9.60;1.00;;;;;;5009298;28;20477;-81
2023/05/09 03:32:29;;;;;;;6.20;5.17;;;9.60;1.00;;;;;;5006219;28;20978;-79
2023/05/09 03:34:56;;;;;;;6.43;4.13;;;9.50;1.00;;;;;;5008553;28;20434;-80
2023/05/09 03:37:23;;;;;;;4.77;4.37;;;9.50;1.00;;;;;;5006058;28;21006;-82
2023/05/09 03:39:50;;;;;;;4.13;3.60;;;9.50;1.00;;;;;;5015494;28;20521;-81
2023/05/09 03:42:17;;;;;;;5.53;3.93;;;9.50;1.00;;;;;;5004690;28;20541;-81
2023/05/09 03:44:43;;;;;;;5.43;4.07;;;9.50;1.00;;;;;;5006058;28;20965;-80
2023/05/09 03:47:12;;;;;;;6.47;4.70;;;9.50;1.00;;;;;;5008122;28;20478;-80
2023/05/09 03:49:40;;;;;;;5.67;4.87;;;9.50;1.00;;;;;;5004648;28;20514;-81
2023/05/09 03:52:07;;;;;;;3.93;3.53;;;9.50;1.00;;;;;;5006464;28;20505;-82
2023/05/09 03:54:34;;;;;;;6.60;4.93;;;9.40;1.00;;;;;;5006396;28;20463;-81
2023/05/09 03:57:02;;;;;;;5.03;3.90;;;9.40;1.00;;;;;;5002780;28;20459;-81
2023/05/09 03:59:29;;;;;;;5.30;4.63;;;9.40;1.00;;;;;;5004551;28;20933;-80
2023/05/09 04:01:56;;;;;;;6.47;4.77;;;9.40;1.00;;;;;;4998944;28;20555;-80
2023/05/09 04:04:24;;;;;;;4.43;3.97;;;9.40;1.00;;;;;;4994652;28;20545;-81
2023/05/09 04:06:51;;;;;;;9.80;5.63;;;9.30;1.00;;;;;;5003375;28;20525;-81
2023/05/09 04:09:19;;;;;;;6.33;5.20;;;9.30;1.00;;;;;;5001383;28;20497;-81
2023/05/09 04:11:46;;;;;;;9.50;5.27;;;9.40;1.00;;;;;;4997763;28;20491;-80
2023/05/09 04:14:13;;;;;;;5.07;4.53;;;9.40;1.00;;;;;;5006661;28;20431;-81
2023/05/09 04:16:40;;;;;;;5.97;4.40;;;9.40;1.00;;;;;;5001802;28;20583;-80
2023/05/09 04:19:07;;;;;;;6.60;4.80;;;9.40;1.00;;;;;;4999885;28;20473;-81
2023/05/09 04:21:36;;;;;;;5.90;5.37;;;9.40;1.00;;;;;;5000560;28;20485;-81
2023/05/09 04:24:03;;;;;;;7.70;5.07;;;9.50;1.00;;;;;;5000214;28;20690;-82
2023/05/09 04:26:31;;;;;;;5.27;4.77;;;9.40;1.00;;;;;;5007951;28;20538;-81
2023/05/09 04:28:58;;;;;;;4.80;4.40;;;9.50;1.00;;;;;;4998213;28;20471;-81
2023/05/09 04:31:25;;;;;;;6.37;5.17;;;9.50;1.00;;;;;;5002262;28;20554;-82
2023/05/09 04:33:52;;;;;;;11.50;6.10;;;9.40;1.00;;;;;;4998983;28;20467;-80
2023/05/09 04:36:19;;;;;;;7.60;5.13;;;9.40;1.00;;;;;;5002239;28;20456;-80
2023/05/09 04:38:50;;;;;;;5.23;4.73;;;9.50;1.00;;;;;;4996946;28;20471;-80
2023/05/09 04:41:17;;;;;;;5.70;5.17;;;9.60;1.00;;;;;;4998391;28;20451;-80
2023/05/09 04:43:44;;;;;;;6.30;5.13;;;9.50;1.00;;;;;;4999947;28;20459;-81
2023/05/09 04:46:11;;;;;;;8.03;6.13;;;9.60;1.00;;;;;;5000293;28;20466;-81
2023/05/09 04:48:38;;;;;;;5.50;4.97;;;9.60;1.00;;;;;;5002717;28;20497;-81
2023/05/09 04:51:06;;;;;;;5.10;4.60;;;9.70;1.00;;;;;;5001748;28;23321;-81
2023/05/09 04:53:34;;;;;;;8.57;5.20;;;9.70;1.00;;;;;;5004577;28;20426;-80
2023/05/09 04:56:02;;;;;;;5.60;5.07;;;9.70;1.00;;;;;;4991008;28;21215;-80
2023/05/09 04:58:29;;;;;;;4.87;4.40;;;9.70;1.00;;;;;;4997585;28;20557;-80
2023/05/09 05:00:57;;;;;;;5.80;4.90;;;9.80;1.00;;;;;;4993799;28;21205;-79
2023/05/09 05:03:25;;;;;;;5.40;4.40;;;9.90;1.00;;;;;;4997877;28;20570;-79
2023/05/09 05:05:52;;;;;;;5.20;4.70;;;9.90;1.00;;;;;;4996747;28;20477;-80
2023/05/09 05:08:19;;;;;;;8.93;4.73;;;9.90;1.00;;;;;;4996579;28;20998;-80
2023/05/09 05:10:46;;;;;;;5.87;5.20;;;9.90;1.00;;;;;;4994189;28;21051;-78
2023/05/09 05:13:14;;;;;;;4.97;4.57;;;10.00;1.00;;;;;;4996244;28;20429;-81
2023/05/09 05:15:42;;;;;;;6.10;5.60;;;10.10;1.00;;;;;;5004175;28;20461;-83
2023/05/09 05:18:09;;;;;;;4.53;3.60;;;10.10;1.00;;;;;;4996892;28;20463;-81
2023/05/09 05:20:36;;;;;;;5.73;4.80;;;10.20;1.00;;;;;;4992704;28;21267;-79
2023/05/09 05:23:03;;;;;;;5.57;5.03;;;10.30;1.00;;;;;;4992385;28;21372;-79
2023/05/09 05:25:30;;;;;;;4.80;4.40;;;10.40;1.00;;;;;;4991403;28;22555;-79
2023/05/09 05:27:57;;;;;;;4.63;4.23;;;10.50;1.00;;;;;;4970326;28;20497;-79
2023/05/09 05:30:25;;;;;;;7.70;3.80;;;10.50;1.00;;;;;;4992169;28;20880;-79
2023/05/09 05:32:52;;;;;;;5.87;4.60;;;10.60;1.00;;;;;;4994134;28;20573;-80
2023/05/09 05:35:22;;;;;;;5.30;4.20;;;10.70;1.00;;;;;;4990103;28;20986;-78
2023/05/09 05:37:49;;;;;;;5.10;4.60;;;10.80;1.00;;;;;;4991792;28;20566;-80
2023/05/09 05:40:16;;;;;;;7.77;4.40;;;11.00;1.00;;;;;;4996744;28;20499;-80
2023/05/09 05:42:45;;;;;;;7.30;4.70;;;11.10;1.00;;;;;;5002126;28;20494;-79
2023/05/09 05:45:13;;;;;;;5.30;4.33;;;11.10;1.00;;;;;;5001880;28;20567;-79
2023/05/09 05:47:41;;;;;;;9.23;6.93;;;11.10;1.00;;;;;;5001313;28;20478;-79
2023/05/09 05:50:10;;;;;;;5.13;4.23;;;11.20;1.00;;;;;;4998313;28;20462;-78
2023/05/09 05:52:38;;;;;;;10.93;4.47;;;11.30;1.00;;;;;;5005610;28;20483;-80
2023/05/09 05:55:06;;;;;;;4.07;3.77;;;11.40;1.00;;;;;;4997707;28;20490;-79
2023/05/09 05:57:34;;;;;;;4.67;4.00;;;11.60;1.00;;;;;;4998545;28;20566;-80
2023/05/09 06:00:04;;;;;;;4.67;4.00;;;11.60;1.00;;;;;;4998279;28;20524;-80
2023/05/09 06:02:31;;;;;;;4.73;3.90;;;11.70;1.00;;;;;;5000228;28;21253;-78
2023/05/09 06:04:59;;;;;;;5.97;5.37;;;11.80;1.00;;;;;;4995558;28;20502;-79
2023/05/09 06:07:27;;;;;;;5.80;3.70;;;11.90;1.00;;;;;;4994555;28;20478;-78
2023/05/09 06:09:55;;;;;;;5.43;4.93;;;12.00;1.00;;;;;;4993017;28;20458;-79
2023/05/09 06:12:22;;;;;;;5.03;4.53;;;12.20;1.00;;;;;;4997732;28;21361;-79
2023/05/09 06:14:49;;;;;;;5.67;4.67;;;12.20;1.00;;;;;;5000614;28;20480;-78
2023/05/09 06:17:16;;;;;;;5.63;4.67;;;12.30;1.00;;;;;;4999841;28;20933;-79
2023/05/09 06:19:43;;;;;;;5.33;4.83;;;12.30;1.00;;;;;;5004836;28;20483;-80
2023/05/09 06:22:12;;;;;;;5.13;4.40;;;12.20;1.00;;;;;;4998808;28;20539;-79
2023/05/09 06:24:38;;;;;;;5.87;4.80;;;12.20;1.00;;;;;;4998562;28;20487;-80
2023/05/09 06:27:06;;;;;;;5.23;4.00;;;12.20;1.00;;;;;;5001685;28;20499;-80
2023/05/09 06:29:33;;;;;;;5.97;4.13;;;12.30;1.00;;;;;;5004805;28;20463;-80
2023/05/09 06:32:00;;;;;;;5.20;4.30;;;12.20;1.00;;;;;;5003632;28;20604;-79
2023/05/09 06:34:27;;;;;;;4.47;4.07;;;12.30;1.00;;;;;;4998131;28;20999;-78
2023/05/09 06:36:54;;;;;;;4.33;3.93;;;12.20;1.00;;;;;;5001301;28;20557;-80
2023/05/09 06:39:22;;;;;;;7.57;5.20;;;12.30;1.00;;;;;;4997916;28;20476;-80
2023/05/09 06:41:49;;;;;;;7.00;4.37;;;12.40;1.00;;;;;;5004209;28;20529;-79
2023/05/09 06:44:16;;;;;;;5.43;4.60;;;12.40;1.00;;;;;;5008086;28;20539;-80
2023/05/09 06:46:43;;;;;;;4.83;4.40;;;12.50;1.00;;;;;;4997681;28;20914;-80
2023/05/09 06:49:12;;;;;;;16.07;4.77;;;12.70;1.00;;;;;;5002285;28;20464;-79
2023/05/09 06:51:39;;;;;;;5.20;4.47;;;12.60;1.00;;;;;;4999745;28;20423;-78
2023/05/09 06:54:06;;;;;;;5.07;4.00;;;12.70;1.00;;;;;;5002949;28;20437;-79
2023/05/09 06:56:36;;;;;;;5.03;4.30;;;12.80;1.00;;;;;;5001172;28;20634;-79
2023/05/09 06:59:03;;;;;;;8.00;4.70;;;12.80;1.00;;;;;;4999098;28;20460;-79
2023/05/09 07:01:30;;;;;;;12.27;11.23;;;13.00;1.00;;;;;;5003285;28;20448;-79
2023/05/09 07:03:58;;;;;;;10.77;5.20;;;12.90;1.00;;;;;;4999688;28;20469;-80
2023/05/09 07:06:25;;;;;;;5.87;4.43;;;12.90;1.00;;;;;;4994648;28;20459;-78
2023/05/09 07:08:52;;;;;;;7.60;4.90;;;12.80;1.00;;;;;;5003174;28;20525;-79
2023/05/09 07:11:19;;;;;;;6.30;4.70;;;12.90;1.00;;;;;;4999497;28;20460;-80
2023/05/09 07:13:48;;;;;;;4.87;4.47;;;13.00;1.00;;;;;;5001232;28;20464;-80
2023/05/09 07:16:17;;;;;;;5.70;5.20;;;13.00;1.00;;;;;;5000448;28;20497;-80
2023/05/09 07:18:44;;;;;;;5.13;4.60;;;12.90;1.00;;;;;;5000581;28;20488;-79
2023/05/09 07:21:11;;;;;;;4.90;4.50;;;13.00;1.00;;;;;;4996223;28;20578;-78
2023/05/09 07:23:38;;;;;;;5.80;4.00;;;13.10;1.00;;;;;;5005551;28;21084;-79
2023/05/09 07:26:05;;;;;;;7.30;4.93;;;13.30;1.00;;;;;;5003418;28;20658;-79
2023/05/09 07:28:32;;;;;;;4.40;4.00;;;13.40;1.00;;;;;;5003060;28;21282;-81
2023/05/09 07:31:00;;;;;;;4.50;4.10;;;13.50;1.00;;;;;;4998993;28;20921;-80
2023/05/09 07:33:27;;;;;;;5.07;3.53;;;13.70;1.00;;;;;;4996598;28;20477;-80
2023/05/09 07:35:54;;;;;;;5.80;4.07;;;13.70;1.00;;;;;;4999037;28;20480;-79
2023/05/09 07:38:21;;;;;;;7.53;5.53;;;13.80;1.00;;;;;;5003413;28;20464;-79
2023/05/09 07:40:48;;;;;;;9.30;4.47;;;13.80;1.00;;;;;;4994563;28;20543;-81
2023/05/09 07:43:17;;;;;;;4.27;3.60;;;14.00;1.00;;;;;;5000491;28;20469;-80
2023/05/09 07:45:44;;;;;;;5.67;5.17;;;14.20;1.00;;;;;;5005377;28;20490;-79
2023/05/09 07:48:12;;;;;;;4.60;4.10;;;14.40;1.00;;;;;;4997745;28;20534;-78
2023/05/09 07:50:40;;;;;;;4.87;3.77;;;14.50;1.00;;;;;;4995133;28;20790;-79
2023/05/09 07:53:07;;;;;;;5.47;4.23;;;14.50;1.00;;;;;;5000938;28;21021;-80
2023/05/09 07:55:34;;;;;;;4.93;4.43;;;14.60;1.00;;;;;;4996493;28;21186;-79
2023/05/09 07:58:01;;;;;;;4.83;4.33;;;14.70;1.00;;;;;;5001018;28;21207;-81
2023/05/09 08:00:27;;;;;;;4.77;4.37;;;14.80;1.00;;;;;;4999138;28;20941;-80
2023/05/09 08:02:54;;;;;;;5.47;4.50;;;14.70;1.00;;;;;;5001223;28;20461;-80
2023/05/09 08:05:23;;;;;;;6.33;4.27;;;14.90;1.00;;;;;;5000227;28;20475;-80
2023/05/09 08:07:50;;;;;;;5.17;4.20;;;15.00;1.00;;;;;;5001674;28;20465;-80
2023/05/09 08:10:17;;;;;;;9.03;4.53;;;15.20;1.00;;;;;;4998744;28;20468;-80
2023/05/09 08:12:44;;;;;;;7.70;4.37;;;15.30;1.00;;;;;;4995622;28;20459;-79
2023/05/09 08:15:12;;;;;;;4.30;3.90;;;15.40;1.00;;;;;;4997875;28;21019;-80
2023/05/09 08:17:39;;;;;;;4.00;3.60;;;15.40;1.00;;;;;;4997327;28;21306;-79
2023/05/09 08:20:07;;;;;;;6.43;4.13;;;15.50;1.00;;;;;;4999900;28;20466;-79
2023/05/09 08:22:36;;;;;;;6.00;3.90;;;15.70;1.00;;;;;;4998140;28;20466;-80
2023/05/09 08:25:03;;;;;;;4.87;3.77;;;15.90;1.00;;;;;;4997495;28;20461;-79
2023/05/09 08:27:30;;;;;;;4.07;3.67;;;15.90;1.00;;;;;;4997966;28;20560;-79
2023/05/09 08:29:57;;;;;;;5.33;3.43;;;15.90;1.00;;;;;;5005681;28;20502;-79
2023/05/09 08:32:24;;;;;;;3.77;3.47;;;15.80;1.00;;;;;;4999208;28;20550;-80
2023/05/09 08:34:51;;;;;;;4.00;3.70;;;15.80;1.00;;;;;;4999745;28;20494;-78
2023/05/09 08:37:18;;;;;;;5.97;4.03;;;15.80;1.00;;;;;;5001677;28;20505;-79
2023/05/09 08:39:46;;;;;;;3.93;3.53;;;15.90;1.00;;;;;;4997643;28;20498;-79
2023/05/09 08:42:18;;;;;;;4.07;3.77;;;16.00;1.00;;;;;;4997158;28;20466;-80
2023/05/09 08:44:45;;;;;;;7.43;4.00;;;16.10;1.00;;;;;;5001529;28;20490;-80
2023/05/09 08:47:13;;;;;;;4.77;4.23;;;16.30;1.00;;;;;;4998785;28;20542;-79
2023/05/09 08:49:41;;;;;;;6.77;4.40;;;16.50;1.00;;;;;;5000118;28;20562;-80
2023/05/09 08:52:10;;;;;;;3.97;3.60;;;16.30;1.00;;;;;;4999564;28;20462;-79
2023/05/09 08:54:38;;;;;;;4.27;3.83;;;16.30;1.00;;;;;;4998549;28;20451;-80
2023/05/09 08:57:07;;;;;;;4.80;3.90;;;16.20;1.00;;;;;;4997045;28;21368;-80
2023/05/09 08:59:36;;;;;;;6.33;4.03;;;16.40;1.00;;;;;;5003075;28;20465;-80
2023/05/09 09:02:06;;;;;;;6.50;3.70;;;16.70;1.00;;;;;;4998353;28;20829;-80
2023/05/09 09:04:34;;;;;;;9.90;5.37;;;16.80;1.00;;;;;;4999460;28;20490;-80
2023/05/09 09:07:04;;;;;;;5.10;4.40;;;17.10;1.00;;;;;;4996199;28;20510;-80
2023/05/09 09:09:32;;;;;;;6.67;3.77;;;17.30;1.00;;;;;;4996129;28;20526;-80
2023/05/09 09:11:59;;;;;;;4.63;3.83;;;17.20;1.00;;;;;;4997737;28;20472;-80
2023/05/09 09:14:31;;;;;;;6.30;4.23;;;17.30;1.00;;;;;;4998375;28;20497;-79
2023/05/09 09:16:59;;;;;;;4.63;3.60;;;17.50;1.00;;;;;;4998836;28;21293;-79
2023/05/09 09:19:30;;;;;;;7.67;3.87;;;17.60;1.00;;;;;;5006116;28;20460;-79
2023/05/09 09:22:00;;;;;;;5.57;3.80;;;17.80;1.00;;;;;;4999931;28;20477;-80
2023/05/09 09:24:27;;;;;;;4.00;3.50;;;18.30;1.00;;;;;;5003319;28;20555;-79
2023/05/09 09:26:55;;;;;;;7.80;4.37;;;19.00;1.00;;;;;;4998774;28;20555;-80
2023/05/09 09:29:22;;;;;;;3.20;2.83;;;20.10;1.00;;;;;;4998341;28;20523;-80
2023/05/09 09:31:55;;;;;;;5.53;3.90;;;20.90;1.00;;;;;;5000989;28;20947;-80
2023/05/09 09:34:23;;;;;;;3.67;3.37;;;21.60;1.00;;;;;;4997809;28;20536;-80
2023/05/09 09:36:50;;;;;;;5.03;3.33;;;22.30;1.00;;;;;;5002893;28;20506;-79
2023/05/09 09:39:18;;;;;;;4.70;4.00;;;23.20;1.00;;;;;;5003762;28;20466;-79
2023/05/09 09:41:45;;;;;;;5.73;3.67;;;23.10;1.00;;;;;;5005970;28;20903;-79
2023/05/09 09:44:14;;;;;;;4.60;3.77;;;22.80;1.00;;;;;;5004552;28;20921;-80
2023/05/09 09:46:43;;;;;;;3.97;3.57;;;22.70;1.00;;;;;;4979752;28;20433;-80
2023/05/09 09:49:12;;;;;;;5.20;4.00;;;23.10;1.00;;;;;;5003018;28;20423;-81
2023/05/09 09:51:41;;;;;;;4.53;4.13;;;23.20;1.00;;;;;;4996346;28;20561;-79
2023/05/09 09:54:13;;;;;;;3.50;3.07;;;24.00;1.00;;;;;;5001224;28;20557;-79
2023/05/09 09:56:42;;;;;;;4.07;3.47;;;24.30;1.00;;;;;;4997130;28;20453;-79
2023/05/09 09:59:11;;;;;;;3.70;3.40;;;24.60;1.00;;;;;;5001049;28;20655;-79
2023/05/09 10:01:54;;;;;;;5.73;5.17;;;25.20;1.00;;;;;;4997253;28;20473;-80
2023/05/09 10:04:23;;;;;;;3.83;3.40;;;25.80;1.00;;;;;;4998708;28;20479;-79
2023/05/09 10:06:55;;;;;;;4.30;3.53;;;26.20;1.00;;;;;;4995397;28;20469;-80
2023/05/09 10:09:22;;;;;;;3.40;3.20;;;26.20;1.00;;;;;;5001287;28;20468;-79
2023/05/09 10:11:51;;;;;;;3.90;3.30;;;26.70;1.00;;;;;;4994986;28;20472;-80
2023/05/09 10:14:20;;;;;;;3.93;3.53;;;26.20;1.00;;;;;;4996979;28;20489;-80
2023/05/09 10:16:49;;;;;;;3.70;3.50;;;25.60;1.00;;;;;;4999428;28;20548;-80
2023/05/09 10:19:19;;;;;;;3.80;3.27;;;26.10;1.00;;;;;;4998281;28;20505;-79
2023/05/09 10:21:52;;;;;;;3.70;3.30;;;26.30;1.00;;;;;;4997364;28;20480;-80
2023/05/09 10:24:26;;;;;;;7.00;4.40;;;25.30;1.00;;;;;;4998507;28;20988;-81
2023/05/09 10:26:59;;;;;;;4.60;3.47;;;25.50;1.00;;;;;;4996819;28;20468;-80
2023/05/09 10:29:30;;;;;;;14.50;3.80;;;26.20;1.00;;;;;;5000735;28;20472;-81
2023/05/09 10:32:01;;;;;;;4.00;3.60;;;26.90;1.00;;;;;;4998042;28;20474;-81
2023/05/09 10:34:34;;;;;;;5.77;3.40;;;27.00;1.00;;;;;;4998205;28;20474;-80
2023/05/09 10:37:03;;;;;;;4.23;3.63;;;26.50;1.00;;;;;;4997659;28;20459;-81
2023/05/09 10:39:31;;;;;;;4.23;3.20;;;27.20;1.00;;;;;;5001324;28;20590;-81
2023/05/09 10:41:59;;;;;;;6.20;3.90;;;27.10;1.00;;;;;;4997922;28;20478;-81
2023/05/09 10:44:27;;;;;;;5.50;3.53;;;26.70;1.00;;;;;;4998949;28;20626;-80
2023/05/09 10:46:55;;;;;;;3.70;3.03;;;27.30;1.00;;;;;;4999248;28;20457;-81
2023/05/09 10:49:24;;;;;;;7.33;3.70;;;27.50;1.00;;;;;;5004696;28;20464;-81
2023/05/09 10:51:51;;;;;;;3.27;3.00;;;27.40;1.00;;;;;;4999073;28;20556;-80
2023/05/09 10:54:28;;;;;;;4.67;3.70;;;27.90;1.00;;;;;;4998799;28;20500;-79
2023/05/09 10:56:56;;;;;;;3.63;3.33;;;27.40;1.00;;;;;;4996503;28;20816;-83
2023/05/09 10:59:34;;;;;;;3.80;3.50;;;26.40;1.00;;;;;;4999530;28;20820;-81
2023/05/09 11:02:03;;;;;;;3.23;2.93;;;26.40;1.00;;;;;;4994104;28;20496;-81
2023/05/09 11:04:31;;;;;;;4.20;3.20;;;26.60;1.00;;;;;;5002754;28;20485;-80
2023/05/09 11:06:58;;;;;;;4.73;3.30;;;26.40;1.00;;;;;;5008655;28;21502;-80
2023/05/09 11:09:32;;;;;;;3.40;3.10;;;27.10;1.00;;;;;;5001093;28;20523;-80
2023/05/09 11:12:07;;;;;;;3.40;3.13;;;27.10;1.00;;;;;;5003309;28;20873;-79
2023/05/09 11:14:40;;;;;;;3.87;3.57;;;28.00;1.00;;;;;;5003359;28;20942;-81
2023/05/09 11:17:09;;;;;;;3.93;3.50;;;29.10;1.00;;;;;;5003465;28;20513;-82
2023/05/09 11:19:54;;;;;;;4.67;3.80;;;30.10;1.00;;;;;;5000639;28;20531;-81
2023/05/09 11:22:23;;;;;;;4.00;3.50;;;30.80;1.00;;;;;;5000950;28;20847;-83
2023/05/09 11:24:54;;;;;;;3.83;3.33;;;31.00;1.00;;;;;;5005164;28;20474;-81
2023/05/09 11:27:23;;;;;;;4.20;3.03;;;31.10;1.00;;;;;;5006551;28;20910;-81
2023/05/09 11:29:51;;;;;;;6.50;3.23;;;30.10;1.00;;;;;;5003369;28;20470;-80
2023/05/09 11:32:19;;;;;;;5.17;3.60;;;30.30;1.00;;;;;;5002318;28;20426;-80
2023/05/09 11:34:47;;;;;;;5.77;3.30;;;29.80;1.00;;;;;;4999166;28;20439;-80
2023/05/09 11:37:18;;;;;;;5.27;3.90;;;28.70;1.00;;;;;;4999950;28;20485;-81
2023/05/09 11:40:03;;;;;;;4.27;3.57;;;29.30;1.00;;;;;;5001401;28;20442;-81
2023/05/09 11:42:31;;;;;;;4.30;3.10;;;29.30;1.00;;;;;;5000330;28;20441;-80
2023/05/09 11:44:59;;;;;;;5.17;3.30;;;29.50;1.00;;;;;;5004409;28;20482;-82
2023/05/09 11:47:27;;;;;;;5.57;3.80;;;29.70;1.00;;;;;;4997547;28;20466;-80
2023/05/09 11:49:54;;;;;;;6.00;5.57;;;30.20;1.00;;;;;;4999680;28;20462;-80
2023/05/09 11:52:22;;;;;;;3.37;2.90;;;30.30;1.00;;;;;;5001101;28;20940;-81
2023/05/09 11:54:49;;;;;;;4.30;2.80;;;30.30;1.00;;;;;;5000868;28;21057;-81
2023/05/09 11:57:18;;;;;;;3.07;2.80;;;29.90;1.00;;;;;;5006403;28;20488;-82
2023/05/09 11:59:45;;;;;;;3.97;3.10;;;29.80;1.00;;;;;;5003746;28;20423;-81
2023/05/09 12:02:12;;;;;;;3.83;3.53;;;30.00;1.00;;;;;;4999951;28;21283;-81
2023/05/09 12:04:39;;;;;;;6.80;3.27;;;30.00;1.00;;;;;;5001947;28;20487;-81
2023/05/09 12:07:06;;;;;;;3.30;3.00;;;30.30;1.00;;;;;;4984876;28;20525;-81
2023/05/09 12:09:37;;;;;;;4.13;3.17;;;29.90;1.00;;;;;;4998048;28;20938;-81
2023/05/09 12:12:10;;;;;;;3.50;3.23;;;30.20;1.00;;;;;;5003100;28;20487;-81
2023/05/09 12:14:40;;;;;;;3.80;3.37;;;29.90;1.00;;;;;;5000148;28;20471;-80
2023/05/09 12:17:08;;;;;;;4.83;3.30;;;29.90;1.00;;;;;;5010485;28;20430;-80
2023/05/09 12:19:35;;;;;;;2.70;2.50;;;28.80;1.00;;;;;;5002455;28;20487;-81
2023/05/09 12:22:05;;;;;;;3.57;3.27;;;29.10;1.00;;;;;;4998251;28;20569;-81
2023/05/09 12:24:36;;;;;;;3.50;3.20;;;29.40;1.00;;;;;;5003268;28;20916;-80
2023/05/09 12:27:06;;;;;;;5.23;3.13;;;28.00;1.00;;;;;;4999259;28;20458;-81
2023/05/09 12:29:33;;;;;;;4.43;3.00;;;28.60;1.00;;;;;;5004203;28;20423;-80
2023/05/09 12:32:02;;;;;;;4.00;3.30;;;30.20;1.00;;;;;;4998531;28;20505;-81
2023/05/09 12:34:31;;;;;;;3.73;3.30;;;31.40;1.00;;;;;;5002336;28;20562;-82
2023/05/09 12:37:02;;;;;;;3.00;2.80;;;31.70;1.00;;;;;;5010823;28;20458;-80
2023/05/09 12:39:29;;;;;;;4.13;3.80;;;31.50;1.00;;;;;;5003290;28;21015;-81
2023/05/09 12:41:58;;;;;;;3.90;3.37;;;30.10;1.00;;;;;;5001426;28;20475;-79
2023/05/09 12:44:28;;;;;;;3.97;3.67;;;29.80;1.00;;;;;;5001093;28;20510;-81
2023/05/09 12:46:57;;;;;;;6.73;4.00;;;29.60;1.00;;;;;;4997557;28;20450;-81
2023/05/09 12:49:26;;;;;;;3.83;3.50;;;29.50;1.00;;;;;;5003071;28;20431;-81
2023/05/09 12:51:55;;;;;;;4.60;3.30;;;30.80;1.00;;;;;;4990097;28;20574;-80
2023/05/09 12:54:24;;;;;;;3.57;3.20;;;30.80;1.00;;;;;;5000082;28;20584;-81
2023/05/09 12:56:52;;;;;;;3.67;2.83;;;30.70;1.00;;;;;;4999236;28;20434;-80
2023/05/09 12:59:23;;;;;;;3.30;2.87;;;31.70;1.00;;;;;;5001422;28;20469;-81
2023/05/09 13:01:55;;;;;;;7.73;3.73;;;32.10;1.00;;;;;;4999590;28;21406;-82
2023/05/09 13:04:22;;;;;;;3.77;3.37;;;31.00;1.00;;;;;;4997238;28;20443;-81
2023/05/09 13:06:54;;;;;;;3.60;3.30;;;30.70;1.00;;;;;;5007322;28;20479;-81